New Baden, Texas
Current Conditions -  °F | °C
As of 1:15 AM on Thursday 23 Oct 2014 (Local Time) from KLHB Reporting Station
Clear Clear  
Wind Chill: 67°   Ceiling: Unl
Heat Index: 67°   Visibility: 7mi
Dew Point: 58°   Wind: 5mph
Humidity: 73%   Direction: 80°E
Pressure: 30.1"   Gusts: NA
Location:  31.05°N, 96.43°W
Report Text: KLHB 230615Z AUTO 08004KT 7SM CLR 19/14 A3010 RMK AO2 T01930143
Loading
Personal Weather Stations






























Interactive Weather Map
Tropical Storm Tracking
New forecast layout! Learn more

10-Day Weather Forecast

Advertisements
Track Severe Weather on mobile